Time;durP1;ratioP1;P1;durP2;ratioP2;P2;SDS_P1;SDS_P2;PMS_P1;PMS_P2;Temp;Humidity;BMP_temperature;BMP_pressure;BME280_temperature;BME280_humidity;BME280_pressure;Samples;Min_cycle;Max_cycle;Signal;HPM_P1;HPM_P2
2023/02/06 00:02:23;;;;;;;6.70;4.07;;;-2.10;99.90;;;;;;4887428;29;20192;-69
2023/02/06 00:04:48;;;;;;;8.67;5.13;;;-2.00;99.90;;;;;;4891888;29;20181;-67
2023/02/06 00:07:14;;;;;;;5.90;4.20;;;-2.10;99.90;;;;;;4886619;29;20206;-69
2023/02/06 00:09:39;;;;;;;9.53;5.07;;;-2.10;99.90;;;;;;4885273;29;20180;-68
2023/02/06 00:12:05;;;;;;;7.30;5.47;;;-2.00;99.90;;;;;;4884535;29;20246;-69
2023/02/06 00:14:31;;;;;;;10.83;4.33;;;-2.00;99.90;;;;;;4884307;29;20196;-66
2023/02/06 00:16:57;;;;;;;4.80;4.07;;;-2.00;99.90;;;;;;4882481;29;20219;-68
2023/02/06 00:19:22;;;;;;;5.93;4.00;;;-1.90;99.90;;;;;;4891638;29;20525;-66
2023/02/06 00:21:48;;;;;;;6.30;4.13;;;-2.00;99.90;;;;;;4891078;29;20179;-68
2023/02/06 00:24:13;;;;;;;4.80;3.97;;;-2.10;99.90;;;;;;4885426;29;20189;-67
2023/02/06 00:26:39;;;;;;;5.20;4.20;;;-2.10;99.90;;;;;;4895626;29;20180;-68
2023/02/06 00:29:05;;;;;;;6.60;4.50;;;-2.10;99.90;;;;;;4892851;29;20185;-67
2023/02/06 00:31:30;;;;;;;7.03;4.70;;;-2.10;99.90;;;;;;4885834;29;20276;-67
2023/02/06 00:33:56;;;;;;;5.87;4.60;;;-2.10;99.90;;;;;;4885314;29;20638;-68
2023/02/06 00:36:21;;;;;;;5.63;4.80;;;-2.10;99.90;;;;;;4892545;29;20245;-67
2023/02/06 00:38:47;;;;;;;5.97;3.80;;;-2.10;99.90;;;;;;4902327;29;20196;-67
2023/02/06 00:41:13;;;;;;;7.00;3.97;;;-2.10;99.90;;;;;;4887254;29;20212;-68
2023/02/06 00:43:40;;;;;;;4.70;4.13;;;-2.10;99.90;;;;;;4888800;29;20229;-69
2023/02/06 00:46:06;;;;;;;6.43;3.67;;;-2.10;99.90;;;;;;4883632;29;20817;-67
2023/02/06 00:48:32;;;;;;;8.60;3.90;;;-2.10;99.90;;;;;;4883174;29;20512;-68
2023/02/06 00:50:57;;;;;;;6.57;4.33;;;-2.20;99.90;;;;;;4883949;29;20196;-68
2023/02/06 00:53:23;;;;;;;6.70;3.90;;;-2.20;99.90;;;;;;4885185;29;20188;-68
2023/02/06 00:55:48;;;;;;;6.97;4.67;;;-2.20;99.90;;;;;;4887784;29;20172;-67
2023/02/06 00:58:14;;;;;;;6.73;4.73;;;-2.10;99.90;;;;;;4891428;29;20208;-70
2023/02/06 01:00:40;;;;;;;5.90;4.30;;;-2.10;99.90;;;;;;4892508;29;20220;-67
2023/02/06 01:03:05;;;;;;;5.77;4.37;;;-2.10;99.90;;;;;;4897381;29;20172;-68
2023/02/06 01:05:31;;;;;;;3.93;3.63;;;-2.10;99.90;;;;;;4892486;29;20346;-68
2023/02/06 01:07:56;;;;;;;4.90;4.40;;;-2.10;99.90;;;;;;4883764;29;20511;-68
2023/02/06 01:10:22;;;;;;;5.40;3.53;;;-2.10;99.90;;;;;;4884792;29;20698;-69
2023/02/06 01:12:47;;;;;;;6.50;4.27;;;-2.00;99.90;;;;;;4890970;29;20236;-69
2023/02/06 01:15:14;;;;;;;7.13;5.90;;;-2.00;99.90;;;;;;4885424;29;20256;-69
2023/02/06 01:17:40;;;;;;;5.13;3.93;;;-2.00;99.90;;;;;;4896426;29;20185;-68
2023/02/06 01:20:09;;;;;;;5.37;4.70;;;-2.00;99.90;;;;;;4885421;29;20465;-69
2023/02/06 01:22:36;;;;;;;7.20;4.90;;;-2.00;99.90;;;;;;4897392;29;20408;-67
2023/02/06 01:25:02;;;;;;;5.60;5.00;;;-2.00;99.90;;;;;;4898296;29;20831;-67
2023/02/06 01:27:28;;;;;;;6.27;4.97;;;-2.00;99.90;;;;;;4893109;29;20432;-68
2023/02/06 01:29:54;;;;;;;6.67;4.27;;;-2.00;99.90;;;;;;4890223;29;20833;-68
2023/02/06 01:32:20;;;;;;;6.47;4.17;;;-2.10;99.90;;;;;;4890344;29;20723;-68
2023/02/06 01:34:45;;;;;;;8.07;4.43;;;-2.20;99.90;;;;;;4889866;29;20243;-68
2023/02/06 01:37:11;;;;;;;8.10;5.17;;;-2.20;99.90;;;;;;4891818;29;20216;-67
2023/02/06 01:39:36;;;;;;;8.17;4.60;;;-2.10;99.90;;;;;;4899129;29;20296;-68
2023/02/06 01:42:03;;;;;;;8.30;4.70;;;-2.10;99.90;;;;;;4883313;29;20547;-68
2023/02/06 01:44:32;;;;;;;5.43;3.83;;;-2.20;99.90;;;;;;4884367;29;20311;-69
2023/02/06 01:46:58;;;;;;;8.00;5.20;;;-2.10;99.90;;;;;;4892096;29;20408;-68
2023/02/06 01:49:26;;;;;;;7.60;5.10;;;-2.20;99.90;;;;;;4894367;29;20451;-68
2023/02/06 01:52:03;;;;;;;10.23;6.30;;;-2.20;99.90;;;;;;4884346;29;20432;-68
2023/02/06 01:54:30;;;;;;;9.10;5.13;;;-2.10;99.90;;;;;;4880213;29;20762;-68
2023/02/06 01:56:59;;;;;;;6.67;6.00;;;-2.20;99.90;;;;;;4886188;29;20443;-67
2023/02/06 01:59:25;;;;;;;12.10;5.30;;;-2.20;99.90;;;;;;4893705;29;20562;-70
2023/02/06 02:01:51;;;;;;;11.50;4.70;;;-2.20;99.90;;;;;;4879971;29;20425;-70
2023/02/06 02:04:20;;;;;;;7.10;4.47;;;-2.20;99.90;;;;;;4886141;29;20492;-70
2023/02/06 02:07:06;;;;;;;5.37;4.50;;;-2.20;99.90;;;;;;4879820;29;20168;-67
2023/02/06 02:09:32;;;;;;;6.23;4.90;;;-2.30;99.90;;;;;;4899657;29;20434;-68
2023/02/06 02:11:58;;;;;;;8.83;3.70;;;-2.30;99.90;;;;;;4886530;29;20424;-68
2023/02/06 02:14:24;;;;;;;5.37;4.67;;;-2.30;99.90;;;;;;4889382;29;20787;-67
2023/02/06 02:17:11;;;;;;;4.57;4.17;;;-2.40;99.90;;;;;;4896166;29;20228;-68
2023/02/06 02:19:39;;;;;;;7.60;5.20;;;-2.40;99.90;;;;;;4885820;29;20262;-67
2023/02/06 02:22:32;;;;;;;7.03;4.43;;;-2.40;99.90;;;;;;4882609;29;20505;-68
2023/02/06 02:25:20;;;;;;;5.37;4.83;;;-2.40;99.90;;;;;;4878785;29;21027;-68
2023/02/06 02:28:25;;;;;;;5.60;4.73;;;-2.40;99.90;;;;;;4885719;29;20845;-68
2023/02/06 02:31:14;;;;;;;7.23;5.47;;;-2.30;99.90;;;;;;4881060;29;20449;-67
2023/02/06 02:34:10;;;;;;;12.50;6.27;;;-2.20;99.90;;;;;;4885915;29;20420;-68
2023/02/06 02:36:55;;;;;;;4.97;3.50;;;-2.20;99.90;;;;;;4884605;29;20643;-68
2023/02/06 02:39:45;;;;;;;6.83;4.63;;;-2.10;99.90;;;;;;4893272;29;20999;-69
2023/02/06 02:42:26;;;;;;;9.30;4.70;;;-2.00;99.90;;;;;;4888900;29;20404;-68
2023/02/06 02:45:02;;;;;;;4.13;3.70;;;-1.90;99.90;;;;;;4884257;29;20504;-68
2023/02/06 02:47:37;;;;;;;5.77;5.10;;;-1.80;99.90;;;;;;4886146;29;20405;-68
2023/02/06 02:50:04;;;;;;;8.50;4.67;;;-1.70;99.90;;;;;;4891878;29;20436;-68
2023/02/06 02:52:29;;;;;;;7.30;4.10;;;-1.70;99.90;;;;;;4887930;29;20504;-67
2023/02/06 02:54:55;;;;;;;6.03;4.53;;;-1.70;99.90;;;;;;4881974;29;20751;-68
2023/02/06 02:57:27;;;;;;;9.90;4.27;;;-1.60;99.90;;;;;;4887391;29;20240;-68
2023/02/06 02:59:56;;;;;;;10.13;5.07;;;-1.60;99.90;;;;;;4886825;29;20218;-68
2023/02/06 03:02:26;;;;;;;6.93;4.87;;;-1.50;99.90;;;;;;4897085;29;20412;-68
2023/02/06 03:04:58;;;;;;;10.10;3.77;;;-1.50;99.90;;;;;;4892723;29;20563;-67
2023/02/06 03:07:40;;;;;;;6.27;4.37;;;-1.40;99.90;;;;;;4898143;29;20423;-67
2023/02/06 03:10:16;;;;;;;7.53;3.97;;;-1.40;99.90;;;;;;4903834;29;20474;-68
2023/02/06 03:13:16;;;;;;;8.63;3.90;;;-1.40;99.90;;;;;;4888573;29;20717;-69
2023/02/06 03:15:55;;;;;;;9.27;4.77;;;-1.40;99.90;;;;;;4860871;29;20551;-68
2023/02/06 03:18:33;;;;;;;5.97;4.60;;;-1.30;99.90;;;;;;4885964;29;20445;-68
2023/02/06 03:21:02;;;;;;;7.00;5.17;;;-1.30;99.90;;;;;;4901353;29;20433;-68
2023/02/06 03:23:33;;;;;;;10.07;4.47;;;-1.20;99.90;;;;;;4888724;29;20505;-68
2023/02/06 03:26:04;;;;;;;6.07;4.97;;;-1.20;99.90;;;;;;4900000;29;20499;-68
2023/02/06 03:28:36;;;;;;;4.80;4.27;;;-1.20;99.90;;;;;;4894541;29;20446;-67
2023/02/06 03:31:06;;;;;;;6.00;4.13;;;-1.20;99.90;;;;;;4896658;29;20452;-68
2023/02/06 03:33:35;;;;;;;6.87;4.70;;;-1.10;99.90;;;;;;4881290;29;20466;-68
2023/02/06 03:36:04;;;;;;;6.83;5.20;;;-1.10;99.90;;;;;;4888755;29;20448;-70
2023/02/06 03:38:30;;;;;;;6.90;5.40;;;-1.00;99.90;;;;;;4895822;29;20550;-68
2023/02/06 03:40:58;;;;;;;5.97;5.47;;;-1.10;99.90;;;;;;4892418;29;20553;-67
2023/02/06 03:43:26;;;;;;;5.83;4.97;;;-1.10;99.90;;;;;;4893739;29;20471;-68
2023/02/06 03:45:58;;;;;;;5.10;4.70;;;-1.00;99.90;;;;;;4889499;29;20468;-67
2023/02/06 03:48:32;;;;;;;5.17;4.63;;;-1.00;99.90;;;;;;4891957;29;20463;-68
2023/02/06 03:51:03;;;;;;;9.73;4.60;;;-1.00;99.90;;;;;;4885336;29;20434;-68
2023/02/06 03:53:32;;;;;;;4.13;3.83;;;-1.00;99.90;;;;;;4883305;29;20445;-67
2023/02/06 03:56:02;;;;;;;6.33;4.37;;;-1.00;99.90;;;;;;4887575;29;20576;-67
2023/02/06 03:58:27;;;;;;;5.87;4.40;;;-0.90;99.90;;;;;;4887897;29;20453;-68
2023/02/06 04:00:53;;;;;;;5.10;3.87;;;-1.00;99.90;;;;;;4889480;29;20951;-67
2023/02/06 04:03:20;;;;;;;6.73;3.73;;;-0.90;99.90;;;;;;4896997;29;20260;-69
2023/02/06 04:05:45;;;;;;;5.63;4.70;;;-1.00;99.90;;;;;;4885150;29;20184;-67
2023/02/06 04:08:11;;;;;;;7.30;4.70;;;-0.90;99.90;;;;;;4892619;29;20411;-68
2023/02/06 04:10:37;;;;;;;10.03;5.80;;;-0.80;99.90;;;;;;4894276;29;20531;-68
2023/02/06 04:13:02;;;;;;;5.90;4.57;;;-0.80;99.90;;;;;;4888771;29;20266;-67
2023/02/06 04:15:28;;;;;;;8.57;4.57;;;-0.80;99.90;;;;;;4895971;29;20176;-68
2023/02/06 04:17:54;;;;;;;5.60;3.90;;;-0.80;99.90;;;;;;4883787;29;20183;-69
2023/02/06 04:20:19;;;;;;;6.30;3.83;;;-0.70;99.90;;;;;;4900674;29;20235;-67
2023/02/06 04:22:45;;;;;;;6.63;4.00;;;-0.80;99.90;;;;;;4892636;29;20173;-68
2023/02/06 04:25:11;;;;;;;6.70;4.60;;;-0.80;99.90;;;;;;4894264;29;20412;-68
2023/02/06 04:27:37;;;;;;;4.47;4.07;;;-0.70;99.90;;;;;;4896283;29;20187;-69
2023/02/06 04:30:03;;;;;;;5.80;3.70;;;-0.70;99.90;;;;;;4893505;29;20504;-69
2023/02/06 04:32:29;;;;;;;6.63;3.97;;;-0.60;99.90;;;;;;4888021;29;20480;-68
2023/02/06 04:34:55;;;;;;;5.83;3.80;;;-0.60;99.90;;;;;;4887910;29;20430;-69
2023/02/06 04:37:20;;;;;;;3.80;3.40;;;-0.70;99.90;;;;;;4906752;29;20180;-69
2023/02/06 04:39:46;;;;;;;3.47;3.20;;;-0.70;99.90;;;;;;4896509;29;20204;-69
2023/02/06 04:42:12;;;;;;;7.60;4.13;;;-0.70;99.90;;;;;;4893603;29;20240;-69
2023/02/06 04:44:38;;;;;;;4.60;4.10;;;-0.80;99.90;;;;;;4888875;29;20855;-68
2023/02/06 04:47:04;;;;;;;3.33;3.03;;;-0.80;99.90;;;;;;4890589;29;20734;-68
2023/02/06 04:49:30;;;;;;;5.47;3.87;;;-0.80;99.90;;;;;;4900023;29;20181;-68
2023/02/06 04:51:56;;;;;;;4.93;3.73;;;-0.80;99.90;;;;;;4889247;29;20556;-68
2023/02/06 04:54:21;;;;;;;4.20;3.80;;;-0.90;99.90;;;;;;4891500;29;20219;-68
2023/02/06 04:56:47;;;;;;;5.73;3.93;;;-0.90;99.90;;;;;;4891216;29;20176;-68
2023/02/06 04:59:14;;;;;;;6.43;4.60;;;-0.90;99.90;;;;;;4895836;29;20208;-67
2023/02/06 05:01:40;;;;;;;6.80;4.23;;;-0.80;99.90;;;;;;4903822;29;20447;-68
2023/02/06 05:04:05;;;;;;;5.60;4.80;;;-0.90;99.90;;;;;;4892445;29;20495;-68
2023/02/06 05:06:31;;;;;;;6.27;3.40;;;-1.00;99.90;;;;;;4885500;29;20416;-67
2023/02/06 05:09:01;;;;;;;10.40;5.40;;;-0.90;99.90;;;;;;4882149;29;20644;-67
2023/02/06 05:11:27;;;;;;;4.23;3.60;;;-0.90;99.90;;;;;;4895995;29;20255;-68
2023/02/06 05:13:52;;;;;;;3.63;3.30;;;-0.90;99.90;;;;;;4891435;29;20827;-68
2023/02/06 05:16:18;;;;;;;5.13;4.10;;;-1.00;99.90;;;;;;4895609;29;20184;-68
2023/02/06 05:18:44;;;;;;;6.00;4.30;;;-1.10;99.90;;;;;;4895295;29;20200;-68
2023/02/06 05:21:11;;;;;;;10.30;5.17;;;-1.00;99.90;;;;;;4887601;29;20449;-67
2023/02/06 05:23:37;;;;;;;7.13;4.40;;;-1.00;99.90;;;;;;4903349;29;20404;-67
2023/02/06 05:26:03;;;;;;;5.30;4.83;;;-0.90;99.90;;;;;;4884872;29;20437;-68
2023/02/06 05:28:29;;;;;;;6.30;4.47;;;-0.90;99.90;;;;;;4906222;29;20511;-68
2023/02/06 05:30:55;;;;;;;6.83;5.97;;;-0.90;99.90;;;;;;4876585;29;20445;-67
2023/02/06 05:33:22;;;;;;;5.07;4.07;;;-1.00;99.90;;;;;;4895088;29;20420;-67
2023/02/06 05:35:47;;;;;;;5.50;4.90;;;-1.00;99.90;;;;;;4902215;29;20548;-68
2023/02/06 05:38:13;;;;;;;5.80;5.30;;;-1.00;99.90;;;;;;4887692;29;20905;-68
2023/02/06 05:40:39;;;;;;;7.13;6.43;;;-1.00;99.90;;;;;;4891275;29;20449;-68
2023/02/06 05:43:05;;;;;;;5.00;4.57;;;-1.00;99.90;;;;;;4877825;29;20188;-68
2023/02/06 05:45:30;;;;;;;6.27;5.70;;;-1.00;99.90;;;;;;4886840;29;20177;-67
2023/02/06 05:47:56;;;;;;;5.97;5.23;;;-1.00;99.90;;;;;;4889846;29;20177;-68
2023/02/06 05:50:22;;;;;;;9.10;4.63;;;-1.00;99.90;;;;;;4892126;29;20524;-68
2023/02/06 05:52:47;;;;;;;9.63;6.43;;;-1.00;99.90;;;;;;4887444;29;20246;-68
2023/02/06 05:55:14;;;;;;;7.53;6.73;;;-0.90;99.90;;;;;;4887380;29;20264;-68
2023/02/06 05:57:40;;;;;;;9.00;6.20;;;-1.00;99.90;;;;;;4883609;29;20399;-68
2023/02/06 06:00:06;;;;;;;5.37;4.87;;;-0.90;99.90;;;;;;4893834;29;20572;-68
2023/02/06 06:02:32;;;;;;;8.60;6.17;;;-1.00;99.90;;;;;;4892068;29;20649;-68
2023/02/06 06:04:57;;;;;;;7.10;5.97;;;-0.90;99.90;;;;;;4880732;29;20452;-67
2023/02/06 06:07:23;;;;;;;7.30;6.13;;;-1.00;99.90;;;;;;4895682;29;20204;-68
2023/02/06 06:09:48;;;;;;;10.33;7.17;;;-0.90;99.90;;;;;;4902904;29;20255;-68
2023/02/06 06:12:14;;;;;;;12.03;6.23;;;-0.90;99.90;;;;;;4887820;29;20211;-68
2023/02/06 06:14:40;;;;;;;6.07;5.47;;;-0.90;99.90;;;;;;4894363;29;20214;-71
2023/02/06 06:17:05;;;;;;;6.23;5.63;;;-0.90;99.90;;;;;;4891885;29;20184;-70
2023/02/06 06:19:31;;;;;;;9.30;6.63;;;-0.90;99.90;;;;;;4887824;29;20208;-67
2023/02/06 06:21:57;;;;;;;7.50;6.70;;;-0.90;99.90;;;;;;4893659;29;20520;-68
2023/02/06 06:24:22;;;;;;;9.70;6.80;;;-0.90;99.90;;;;;;4889519;29;20251;-67
2023/02/06 06:26:48;;;;;;;7.00;6.10;;;-0.90;99.90;;;;;;4891255;29;20176;-67
2023/02/06 06:29:14;;;;;;;8.13;6.47;;;-0.90;99.90;;;;;;4898223;29;20328;-67
2023/02/06 06:31:39;;;;;;;6.70;5.77;;;-0.80;99.90;;;;;;4888146;29;20298;-67
2023/02/06 06:34:05;;;;;;;6.87;6.13;;;-0.80;99.90;;;;;;4920587;23;20819;-71
2023/02/06 06:36:30;;;;;;;8.23;6.63;;;-0.80;99.90;;;;;;4902863;29;20176;-70
2023/02/06 06:38:56;;;;;;;11.67;7.30;;;-0.80;99.90;;;;;;4895517;29;20205;-71
2023/02/06 06:41:21;;;;;;;11.43;6.57;;;-0.80;99.90;;;;;;4899448;29;20173;-71
2023/02/06 06:43:47;;;;;;;7.63;6.87;;;-0.70;99.90;;;;;;4882530;29;20193;-71
2023/02/06 06:46:13;;;;;;;13.70;7.60;;;-0.70;99.90;;;;;;4884561;29;20177;-70
2023/02/06 06:48:39;;;;;;;12.37;7.77;;;-0.70;99.90;;;;;;4875427;29;20180;-70
2023/02/06 06:51:05;;;;;;;12.90;7.67;;;-0.70;99.90;;;;;;4877043;29;20185;-70
2023/02/06 06:53:30;;;;;;;11.87;7.50;;;-0.80;99.90;;;;;;4880636;29;20862;-69
2023/02/06 06:56:02;;;;;;;10.27;7.90;;;-0.80;99.90;;;;;;4875957;29;20414;-69
2023/02/06 06:58:28;;;;;;;11.00;8.70;;;-0.80;99.90;;;;;;4878171;29;20728;-70
2023/02/06 07:00:53;;;;;;;7.90;5.77;;;-0.80;99.90;;;;;;4880827;29;20418;-70
2023/02/06 07:03:19;;;;;;;16.53;8.40;;;-0.70;99.90;;;;;;4877076;29;20197;-70
2023/02/06 07:05:46;;;;;;;11.27;7.57;;;-0.60;99.90;;;;;;4876048;29;20177;-69
2023/02/06 07:08:11;;;;;;;11.33;7.63;;;-0.60;99.90;;;;;;4876286;29;20181;-71
2023/02/06 07:10:37;;;;;;;12.00;8.07;;;-0.60;99.90;;;;;;4879966;29;20425;-72
2023/02/06 07:13:02;;;;;;;13.10;9.07;;;-0.60;99.90;;;;;;4876986;29;20276;-68
2023/02/06 07:15:28;;;;;;;8.10;7.30;;;-0.70;99.90;;;;;;4876758;29;20246;-70
2023/02/06 07:17:54;;;;;;;14.20;8.10;;;-0.80;99.90;;;;;;4879825;29;20180;-69
2023/02/06 07:20:19;;;;;;;10.50;7.10;;;-0.80;99.90;;;;;;4875213;29;20209;-69
2023/02/06 07:22:46;;;;;;;8.17;7.37;;;-0.70;99.90;;;;;;4879812;29;20227;-69
2023/02/06 07:25:12;;;;;;;11.53;8.63;;;-0.60;99.90;;;;;;4874303;29;20174;-71
2023/02/06 07:27:37;;;;;;;13.60;9.50;;;-0.50;99.90;;;;;;4877767;29;21003;-71
2023/02/06 07:30:03;;;;;;;13.80;9.83;;;-0.50;99.90;;;;;;4874229;29;20577;-70
2023/02/06 07:32:29;;;;;;;15.67;9.77;;;-0.40;99.90;;;;;;4876023;29;20682;-70
2023/02/06 07:34:54;;;;;;;11.33;8.77;;;-0.50;99.90;;;;;;4879749;29;20445;-70
2023/02/06 07:37:20;;;;;;;14.27;9.17;;;-0.50;99.90;;;;;;4873948;29;20267;-71
2023/02/06 07:39:45;;;;;;;12.87;10.47;;;-0.50;99.90;;;;;;4880827;29;20216;-72
2023/02/06 07:42:12;;;;;;;12.20;9.97;;;-0.30;99.90;;;;;;4875523;29;20169;-70
2023/02/06 07:44:37;;;;;;;20.33;8.60;;;-0.30;99.90;;;;;;4875769;29;20243;-70
2023/02/06 07:47:04;;;;;;;13.97;10.10;;;-0.20;99.90;;;;;;4879660;29;21038;-70
2023/02/06 07:49:30;;;;;;;16.03;8.30;;;-0.20;99.90;;;;;;4874440;29;20181;-70
2023/02/06 07:51:55;;;;;;;11.17;9.33;;;-0.30;99.90;;;;;;4880008;29;20424;-71
2023/02/06 07:54:21;;;;;;;13.30;7.70;;;-0.30;99.90;;;;;;4873862;29;20205;-71
2023/02/06 07:56:46;;;;;;;15.73;8.47;;;-0.10;99.90;;;;;;4879808;29;20264;-71
2023/02/06 07:59:12;;;;;;;11.40;7.83;;;0.40;99.90;;;;;;4881892;29;20208;-70
2023/02/06 08:01:37;;;;;;;17.03;10.23;;;0.20;99.90;;;;;;4875967;29;20189;-72
2023/02/06 08:04:03;;;;;;;13.60;8.83;;;0.40;99.90;;;;;;4879879;29;20189;-70
2023/02/06 08:06:29;;;;;;;16.10;9.93;;;0.40;99.90;;;;;;4874184;29;20181;-70
2023/02/06 08:08:55;;;;;;;19.60;10.23;;;0.70;99.90;;;;;;4873315;29;20649;-70
2023/02/06 08:11:24;;;;;;;14.90;9.63;;;1.10;99.90;;;;;;4877339;29;20260;-69
2023/02/06 08:13:49;;;;;;;20.20;11.23;;;1.10;99.90;;;;;;4877361;29;20969;-71
2023/02/06 08:16:18;;;;;;;13.33;11.77;;;1.20;99.90;;;;;;4879108;29;20413;-70
2023/02/06 08:18:44;;;;;;;13.47;9.90;;;1.40;99.90;;;;;;4875199;29;20832;-71
2023/02/06 08:21:12;;;;;;;13.53;10.90;;;1.60;99.90;;;;;;4878793;29;20421;-70
2023/02/06 08:23:38;;;;;;;13.20;10.53;;;1.70;99.90;;;;;;4873512;29;20447;-71
2023/02/06 08:26:17;;;;;;;16.53;10.27;;;1.60;99.90;;;;;;4877699;29;20505;-72
2023/02/06 08:28:47;;;;;;;16.40;11.93;;;1.40;99.90;;;;;;4876362;29;20193;-70
2023/02/06 08:31:21;;;;;;;19.70;11.90;;;1.40;99.90;;;;;;4879015;29;20559;-70
2023/02/06 08:33:47;;;;;;;17.60;10.07;;;1.20;99.90;;;;;;4870528;29;20502;-70
2023/02/06 08:36:13;;;;;;;15.03;9.50;;;1.30;99.90;;;;;;4878080;29;20420;-69
2023/02/06 08:38:39;;;;;;;15.27;10.20;;;1.20;99.90;;;;;;4876359;29;21044;-69
2023/02/06 08:41:16;;;;;;;14.03;10.20;;;0.80;99.90;;;;;;4876106;29;20785;-70
2023/02/06 08:43:41;;;;;;;15.90;11.67;;;0.60;99.90;;;;;;4874623;29;20457;-69
2023/02/06 08:46:07;;;;;;;19.17;10.47;;;0.60;99.90;;;;;;4878177;29;20418;-68
2023/02/06 08:48:32;;;;;;;16.83;10.90;;;0.30;99.90;;;;;;4876564;29;20648;-70
2023/02/06 08:51:06;;;;;;;12.03;9.60;;;0.30;99.90;;;;;;4877580;29;20238;-70
2023/02/06 08:53:33;;;;;;;14.87;9.27;;;0.50;99.90;;;;;;4874169;29;20201;-71
2023/02/06 08:56:00;;;;;;;13.60;7.77;;;0.70;99.90;;;;;;4876487;29;20421;-70
2023/02/06 08:58:26;;;;;;;12.90;9.93;;;1.00;99.90;;;;;;4879297;29;20464;-70
2023/02/06 09:00:52;;;;;;;17.50;10.90;;;1.10;99.90;;;;;;4880360;29;20540;-70
2023/02/06 09:03:19;;;;;;;17.03;11.87;;;1.00;99.90;;;;;;4877540;29;20256;-69
2023/02/06 09:05:45;;;;;;;12.57;10.13;;;0.80;99.90;;;;;;4873424;29;20441;-71
2023/02/06 09:08:11;;;;;;;19.27;9.90;;;0.70;99.90;;;;;;4877171;29;20425;-70
2023/02/06 09:10:36;;;;;;;16.90;10.00;;;0.70;99.90;;;;;;4873466;29;20257;-71
2023/02/06 09:13:02;;;;;;;15.07;10.77;;;0.70;99.90;;;;;;4868455;29;20669;-70
2023/02/06 09:15:28;;;;;;;17.77;12.30;;;0.80;99.90;;;;;;4875484;29;20286;-70
2023/02/06 09:17:53;;;;;;;20.20;11.67;;;0.80;99.90;;;;;;4867708;29;20629;-69
2023/02/06 09:20:19;;;;;;;18.87;11.63;;;0.80;99.90;;;;;;4876783;29;20240;-70
2023/02/06 09:22:45;;;;;;;14.77;9.47;;;0.80;99.90;;;;;;4874129;29;20188;-69
2023/02/06 09:25:11;;;;;;;15.73;9.73;;;0.90;99.90;;;;;;4876217;29;20409;-71
2023/02/06 09:27:37;;;;;;;26.57;11.10;;;0.80;99.90;;;;;;4872893;29;20268;-70
2023/02/06 09:30:03;;;;;;;20.67;12.60;;;0.90;99.90;;;;;;4875554;29;20271;-70
2023/02/06 09:32:29;;;;;;;28.20;12.47;;;0.90;99.90;;;;;;4870024;29;20177;-69
2023/02/06 09:34:54;;;;;;;19.70;12.03;;;0.90;99.90;;;;;;4877662;29;20429;-70
2023/02/06 09:37:20;;;;;;;20.23;10.93;;;0.80;99.90;;;;;;4877638;29;20671;-71
2023/02/06 09:39:46;;;;;;;18.23;11.30;;;0.70;99.90;;;;;;4873925;29;20755;-70
2023/02/06 09:42:19;;;;;;;21.27;11.57;;;0.80;99.90;;;;;;4874657;29;20181;-71
2023/02/06 09:44:53;;;;;;;19.43;10.57;;;0.90;99.90;;;;;;4874058;29;20441;-72
2023/02/06 09:47:23;;;;;;;18.30;11.43;;;0.70;99.90;;;;;;4877554;29;20418;-69
2023/02/06 09:49:52;;;;;;;17.87;11.10;;;0.70;99.90;;;;;;4873329;29;20429;-70
2023/02/06 09:52:38;;;;;;;21.03;9.47;;;0.60;99.90;;;;;;4877539;29;20417;-70
2023/02/06 09:55:15;;;;;;;18.33;10.30;;;0.50;99.90;;;;;;4872381;29;20529;-70
2023/02/06 09:57:57;;;;;;;17.53;10.70;;;0.40;99.90;;;;;;4880974;29;20425;-70
2023/02/06 10:00:56;;;;;;;14.27;10.03;;;0.40;99.90;;;;;;4878045;29;20473;-69
2023/02/06 10:03:32;;;;;;;14.70;9.70;;;0.40;99.90;;;;;;4880013;29;20425;-69
2023/02/06 10:06:21;;;;;;;17.43;9.77;;;0.30;99.90;;;;;;4877703;29;20409;-70
2023/02/06 10:09:12;;;;;;;10.73;8.93;;;0.20;99.90;;;;;;4879991;29;20850;-68
2023/02/06 10:12:02;;;;;;;20.17;10.63;;;0.20;99.90;;;;;;4878969;29;20447;-71
2023/02/06 10:14:39;;;;;;;20.30;10.70;;;0.10;99.90;;;;;;4881325;29;20486;-70
2023/02/06 10:17:32;;;;;;;17.03;10.00;;;0.10;99.90;;;;;;4878453;29;21108;-70
2023/02/06 10:20:03;;;;;;;18.20;10.00;;;0.10;99.90;;;;;;4875490;29;20537;-70
2023/02/06 10:22:44;;;;;;;18.13;10.00;;;0.10;99.90;;;;;;4881372;29;20865;-70
2023/02/06 10:25:20;;;;;;;12.20;8.77;;;0.20;99.90;;;;;;4879523;29;20779;-69
2023/02/06 10:27:50;;;;;;;23.13;10.50;;;0.20;99.90;;;;;;4877381;29;20413;-69
2023/02/06 10:30:18;;;;;;;19.17;9.23;;;0.30;99.90;;;;;;4878686;29;20900;-70
2023/02/06 10:32:52;;;;;;;16.77;11.10;;;0.30;99.90;;;;;;4873452;29;20764;-69
2023/02/06 10:35:48;;;;;;;14.37;10.60;;;0.20;99.90;;;;;;4877703;29;20516;-71
2023/02/06 10:38:25;;;;;;;10.70;8.87;;;0.30;99.90;;;;;;4858332;29;20449;-70
2023/02/06 10:41:26;;;;;;;17.23;9.17;;;0.20;99.90;;;;;;4871255;29;20421;-69
2023/02/06 10:43:53;;;;;;;16.23;10.00;;;0.30;99.90;;;;;;4870077;29;20461;-71
2023/02/06 10:46:41;;;;;;;16.57;10.47;;;0.20;99.90;;;;;;4879792;29;20418;-71
2023/02/06 10:49:26;;;;;;;15.60;9.43;;;0.40;99.90;;;;;;4882917;29;20425;-70
2023/02/06 10:52:01;;;;;;;14.37;9.30;;;0.40;99.90;;;;;;4878080;29;20452;-71
2023/02/06 10:54:43;;;;;;;13.60;10.10;;;0.40;99.90;;;;;;4871973;29;20456;-71
2023/02/06 10:57:16;;;;;;;17.30;7.20;;;0.50;99.90;;;;;;4875790;29;21127;-71
2023/02/06 10:59:50;;;;;;;17.67;11.57;;;0.50;99.90;;;;;;4873855;29;20462;-71
2023/02/06 11:02:44;;;;;;;16.53;9.53;;;0.60;99.90;;;;;;4879104;29;20406;-70
2023/02/06 11:05:20;;;;;;;15.80;7.70;;;0.60;99.90;;;;;;4872415;29;20409;-71
2023/02/06 11:07:52;;;;;;;13.57;9.20;;;0.50;99.90;;;;;;4878258;29;20782;-71
2023/02/06 11:10:20;;;;;;;16.00;9.07;;;0.40;99.90;;;;;;4861655;29;20430;-70
2023/02/06 11:12:51;;;;;;;17.77;9.70;;;0.30;99.90;;;;;;4865014;29;20437;-72
2023/02/06 11:15:37;;;;;;;18.03;9.10;;;0.30;99.90;;;;;;4866953;29;20964;-69
2023/02/06 11:18:06;;;;;;;14.47;10.30;;;0.30;99.90;;;;;;4873787;29;20943;-64
2023/02/06 11:20:34;;;;;;;18.37;10.27;;;0.40;99.90;;;;;;4863007;29;20468;-68
2023/02/06 11:23:13;;;;;;;16.07;8.70;;;0.40;99.90;;;;;;4879275;29;20460;-70
2023/02/06 11:25:40;;;;;;;20.53;10.53;;;0.40;99.90;;;;;;4877176;29;20417;-70
2023/02/06 11:28:17;;;;;;;18.37;9.67;;;0.30;99.90;;;;;;4876299;29;20474;-71
2023/02/06 11:31:01;;;;;;;15.23;9.43;;;0.40;99.90;;;;;;4878128;29;20468;-69
2023/02/06 11:33:53;;;;;;;15.10;11.00;;;0.50;99.90;;;;;;4878389;29;20524;-70
2023/02/06 11:36:35;;;;;;;17.60;9.30;;;0.60;99.90;;;;;;4878721;29;20917;-70
2023/02/06 11:39:06;;;;;;;20.17;10.60;;;0.60;99.90;;;;;;4875393;29;20590;-70
2023/02/06 11:41:35;;;;;;;19.10;10.10;;;0.60;99.90;;;;;;4869164;29;20521;-70
2023/02/06 11:44:05;;;;;;;19.70;10.63;;;0.50;99.90;;;;;;4857944;29;20459;-71
2023/02/06 11:46:37;;;;;;;17.33;10.20;;;0.40;99.90;;;;;;4863882;29;20429;-70
2023/02/06 11:49:06;;;;;;;14.23;9.30;;;0.50;99.90;;;;;;4877645;29;20425;-70
2023/02/06 11:52:03;;;;;;;18.67;10.23;;;0.50;99.90;;;;;;4877408;29;20969;-69
2023/02/06 11:54:33;;;;;;;18.60;9.90;;;0.50;99.90;;;;;;4861291;29;20458;-69
2023/02/06 11:57:17;;;;;;;18.97;11.30;;;0.60;99.90;;;;;;4877429;29;20508;-70
2023/02/06 11:59:55;;;;;;;24.30;12.80;;;0.50;99.90;;;;;;4875861;29;20458;-71
2023/02/06 12:02:48;;;;;;;20.97;11.03;;;0.60;99.90;;;;;;4878455;29;20417;-70
2023/02/06 12:05:16;;;;;;;19.60;11.03;;;0.50;99.90;;;;;;4875013;29;20420;-70
2023/02/06 12:07:51;;;;;;;19.27;10.80;;;0.50;99.90;;;;;;4877345;29;20414;-70
2023/02/06 12:10:19;;;;;;;17.37;9.53;;;0.60;99.90;;;;;;4874337;29;20500;-69
2023/02/06 12:12:56;;;;;;;17.57;11.10;;;0.60;99.90;;;;;;4866753;29;20534;-70
2023/02/06 12:15:42;;;;;;;18.00;11.93;;;0.50;99.90;;;;;;4875686;29;20469;-70
2023/02/06 12:18:33;;;;;;;16.00;11.70;;;0.60;99.90;;;;;;4873842;29;20477;-71
2023/02/06 12:21:19;;;;;;;14.07;9.50;;;0.50;99.90;;;;;;4873038;29;20453;-71
2023/02/06 12:23:52;;;;;;;20.47;11.33;;;0.50;99.90;;;;;;4872110;29;20438;-69
2023/02/06 12:26:21;;;;;;;17.00;11.77;;;0.40;99.90;;;;;;4878187;29;20418;-70
2023/02/06 12:29:06;;;;;;;23.40;11.70;;;0.40;99.90;;;;;;4871951;29;20502;-71
2023/02/06 12:31:46;;;;;;;15.10;9.60;;;0.40;99.90;;;;;;4877926;29;20508;-70
2023/02/06 12:34:22;;;;;;;19.27;11.03;;;0.50;99.90;;;;;;4875592;29;20472;-71
2023/02/06 12:37:13;;;;;;;24.30;11.47;;;0.50;99.90;;;;;;4886340;23;20536;-74
2023/02/06 12:39:40;;;;;;;13.17;9.33;;;0.60;99.90;;;;;;4878412;29;20574;-74
2023/02/06 12:42:35;;;;;;;15.50;10.60;;;0.50;99.90;;;;;;4875562;29;20426;-74
2023/02/06 12:45:15;;;;;;;18.07;12.30;;;0.50;99.90;;;;;;4875848;29;20500;-71
2023/02/06 12:47:54;;;;;;;19.67;11.63;;;0.50;99.90;;;;;;4877635;29;20904;-74
2023/02/06 12:50:25;;;;;;;17.70;11.10;;;0.50;99.90;;;;;;4865256;29;20426;-74
2023/02/06 12:53:09;;;;;;;17.73;11.30;;;0.60;99.90;;;;;;4872879;29;20771;-73
2023/02/06 12:55:47;;;;;;;15.80;9.50;;;0.70;99.90;;;;;;4866622;29;20469;-74
2023/02/06 12:58:24;;;;;;;20.07;11.37;;;0.70;99.90;;;;;;4863583;29;20534;-74
2023/02/06 13:01:00;;;;;;;18.93;9.60;;;0.70;99.90;;;;;;4865799;29;20421;-74